El Paso, Wisconsin
Current Conditions -  °F | °C
As of 3:11 PM on Saturday 22 Nov 2014 (Local Time) from KRGK Reporting Station
Haze Haze  
Wind Chill: 33°   Ceiling: NA
Heat Index: 37°   Visibility: 4mi
Dew Point: 36°   Wind: 6mph
Humidity: 93%   Direction: 200°SSW
Pressure: 29.7"   Gusts: NA
Location:  44.7744°N, 92.4335°W
Report Text: KRGK 222111Z AUTO 20005KT 4SM BR 03/02 A2970 RMK AO2
Loading
Personal Weather Stations






























Interactive Weather Map New forecast layout! Learn more

10-Day Weather Forecast

Advertisements
Track Severe Weather on mobile